createdAt,value
2023-03-29T00:02:07.986Z,5.94
2023-03-29T00:04:35.627Z,6.03
2023-03-29T00:07:04.899Z,6.09
2023-03-29T00:09:33.490Z,6.18
2023-03-29T00:12:01.237Z,6.25
2023-03-29T00:14:30.768Z,6.30
2023-03-29T00:16:58.910Z,6.39
2023-03-29T00:19:26.604Z,6.45
2023-03-29T00:21:53.955Z,6.49
2023-03-29T00:24:21.551Z,6.51
2023-03-29T00:26:48.868Z,6.54
2023-03-29T00:29:16.758Z,6.58
2023-03-29T00:31:53.791Z,6.55
2023-03-29T00:34:21.914Z,6.54
2023-03-29T00:36:53.150Z,6.58
2023-03-29T00:39:20.783Z,6.62
2023-03-29T00:41:48.874Z,6.69
2023-03-29T00:44:34.809Z,6.64
2023-03-29T00:47:02.070Z,6.61
2023-03-29T00:49:29.600Z,6.52
2023-03-29T00:51:57.244Z,6.49
2023-03-29T00:54:24.984Z,6.49
2023-03-29T00:56:52.527Z,6.61
2023-03-29T00:59:22.461Z,6.55
2023-03-29T01:01:55.184Z,6.59
2023-03-29T01:04:36.534Z,6.64
2023-03-29T01:07:13.658Z,6.50
2023-03-29T01:09:43.592Z,6.35
2023-03-29T01:12:13.615Z,6.32
2023-03-29T01:14:48.095Z,6.25
2023-03-29T01:17:16.158Z,6.12
2023-03-29T01:19:50.242Z,6.06
2023-03-29T01:22:34.134Z,5.89
2023-03-29T01:25:11.248Z,5.71
2023-03-29T01:27:45.230Z,5.69
2023-03-29T01:30:14.769Z,5.69
2023-03-29T01:32:42.114Z,5.50
2023-03-29T01:35:22.840Z,5.67
2023-03-29T01:37:56.915Z,5.64
2023-03-29T01:40:27.271Z,5.58
2023-03-29T01:42:58.672Z,5.47
2023-03-29T01:45:37.032Z,5.29
2023-03-29T01:48:13.448Z,5.31
2023-03-29T01:50:47.838Z,5.47
2023-03-29T01:53:24.243Z,5.60
2023-03-29T01:56:00.537Z,5.57
2023-03-29T01:58:33.660Z,5.59
2023-03-29T02:01:05.840Z,5.67
2023-03-29T02:03:34.750Z,5.74
2023-03-29T02:06:04.933Z,5.60
2023-03-29T02:08:32.252Z,5.46
2023-03-29T02:10:59.622Z,5.43
2023-03-29T02:13:27.424Z,5.43
2023-03-29T02:15:54.851Z,5.16
2023-03-29T02:18:22.226Z,5.04
2023-03-29T02:20:50.872Z,5.00
2023-03-29T02:23:30.498Z,4.95
2023-03-29T02:25:57.841Z,4.97
2023-03-29T02:28:27.089Z,4.97
2023-03-29T02:30:57.153Z,4.90
2023-03-29T02:33:33.468Z,4.93
2023-03-29T02:36:04.650Z,4.81
2023-03-29T02:38:32.802Z,4.94
2023-03-29T02:41:00.972Z,5.05
2023-03-29T02:43:29.158Z,5.13
2023-03-29T02:45:56.626Z,4.96
2023-03-29T02:48:26.852Z,4.87
2023-03-29T02:50:58.441Z,4.94
2023-03-29T02:53:42.436Z,4.98
2023-03-29T02:56:09.983Z,4.98
2023-03-29T02:58:37.561Z,4.88
2023-03-29T03:01:07.012Z,4.87
2023-03-29T03:03:35.762Z,5.15
2023-03-29T03:06:04.795Z,5.35
2023-03-29T03:08:32.537Z,5.40
2023-03-29T03:11:00.274Z,5.45
2023-03-29T03:13:27.996Z,5.47
2023-03-29T03:15:56.201Z,5.37
2023-03-29T03:18:24.209Z,5.32
2023-03-29T03:20:56.212Z,5.28
2023-03-29T03:23:24.973Z,5.21
2023-03-29T03:25:52.900Z,5.17
2023-03-29T03:28:22.201Z,5.22
2023-03-29T03:30:50.178Z,5.28
2023-03-29T03:33:18.837Z,5.46
2023-03-29T03:36:06.410Z,5.71
2023-03-29T03:38:37.933Z,5.83
2023-03-29T03:41:09.638Z,5.87
2023-03-29T03:43:37.585Z,5.78
2023-03-29T03:46:05.459Z,5.56
2023-03-29T03:48:33.427Z,5.45
2023-03-29T03:51:27.381Z,5.41
2023-03-29T03:53:54.942Z,5.40
2023-03-29T03:56:34.456Z,5.24
2023-03-29T03:59:05.717Z,5.32
2023-03-29T04:01:53.701Z,5.28
2023-03-29T04:04:23.618Z,5.10
2023-03-29T04:07:04.892Z,5.07
2023-03-29T04:09:50.946Z,5.14
2023-03-29T04:12:44.733Z,5.25
2023-03-29T04:15:12.340Z,5.22
2023-03-29T04:17:46.072Z,5.16
2023-03-29T04:20:26.205Z,5.17
2023-03-29T04:22:54.118Z,5.29
2023-03-29T04:25:22.402Z,5.30
2023-03-29T04:27:58.962Z,5.33
2023-03-29T04:30:46.579Z,5.39
2023-03-29T04:33:34.567Z,5.46
2023-03-29T04:36:02.354Z,5.49
2023-03-29T04:38:32.079Z,5.55
2023-03-29T04:41:01.304Z,5.47
2023-03-29T04:43:46.710Z,5.49
2023-03-29T04:46:33.365Z,5.46
2023-03-29T04:49:07.115Z,5.44
2023-03-29T04:51:38.195Z,5.43
2023-03-29T04:54:06.993Z,5.49
2023-03-29T04:57:00.372Z,5.34
2023-03-29T04:59:38.870Z,5.47
2023-03-29T05:02:17.126Z,5.43
2023-03-29T05:04:48.113Z,5.47
2023-03-29T05:07:19.206Z,5.41
2023-03-29T05:09:48.081Z,5.33
2023-03-29T05:12:16.143Z,5.35
2023-03-29T05:14:54.018Z,5.37
2023-03-29T05:17:26.837Z,5.44
2023-03-29T05:19:57.229Z,5.52
2023-03-29T05:22:26.728Z,5.60
2023-03-29T05:24:54.336Z,5.74
2023-03-29T05:27:23.034Z,5.62
2023-03-29T05:30:03.747Z,5.68
2023-03-29T05:32:49.920Z,5.64
2023-03-29T05:35:24.451Z,5.41
2023-03-29T05:37:54.002Z,5.47
2023-03-29T05:40:22.887Z,5.59
2023-03-29T05:43:09.206Z,5.46
2023-03-29T05:45:36.948Z,5.38
2023-03-29T05:48:05.459Z,5.43
2023-03-29T05:50:34.648Z,5.46
2023-03-29T05:53:03.661Z,5.30
2023-03-29T05:55:31.174Z,5.32
2023-03-29T05:57:58.591Z,5.51
2023-03-29T06:00:31.973Z,5.59
2023-03-29T06:03:21.288Z,5.57
2023-03-29T06:05:56.868Z,5.64
2023-03-29T06:08:26.206Z,5.90
2023-03-29T06:11:26.390Z,5.98
2023-03-29T06:14:14.109Z,6.08
2023-03-29T06:16:47.441Z,6.20
2023-03-29T06:19:16.725Z,6.18
2023-03-29T06:21:44.553Z,6.26
2023-03-29T06:24:16.356Z,6.40
2023-03-29T06:26:50.484Z,6.65
2023-03-29T06:29:18.517Z,7.03
2023-03-29T06:31:47.228Z,7.21
2023-03-29T06:34:33.256Z,7.41
2023-03-29T06:37:20.231Z,7.55
2023-03-29T06:39:53.967Z,7.59
2023-03-29T06:42:33.019Z,7.83
2023-03-29T06:45:37.087Z,8.03
2023-03-29T06:48:08.896Z,8.18
2023-03-29T06:50:36.337Z,8.43
2023-03-29T06:53:11.669Z,8.63
2023-03-29T06:55:41.494Z,8.66
2023-03-29T06:58:31.735Z,8.79
2023-03-29T07:01:07.133Z,9.20
2023-03-29T07:03:47.420Z,9.31
2023-03-29T07:06:20.447Z,9.59
2023-03-29T07:08:52.481Z,9.34
2023-03-29T07:11:58.703Z,9.19
2023-03-29T07:14:30.165Z,9.01
2023-03-29T07:16:58.866Z,9.04
2023-03-29T07:19:33.313Z,9.38
2023-03-29T07:22:31.881Z,9.13
2023-03-29T07:25:01.542Z,9.08
2023-03-29T07:27:31.612Z,9.10
2023-03-29T07:29:59.410Z,9.14
2023-03-29T07:32:28.162Z,9.16
2023-03-29T07:35:23.334Z,9.31
2023-03-29T07:37:50.849Z,9.63
2023-03-29T07:40:23.521Z,9.65
2023-03-29T07:42:57.257Z,9.52
2023-03-29T07:45:28.659Z,9.57
2023-03-29T07:48:00.819Z,9.72
2023-03-29T07:50:37.984Z,10.18
2023-03-29T07:53:05.647Z,9.74
2023-03-29T07:55:34.049Z,10.10
2023-03-29T07:58:26.666Z,10.14
2023-03-29T08:00:54.309Z,10.42
2023-03-29T08:03:44.450Z,10.23
2023-03-29T08:06:12.369Z,10.46
2023-03-29T08:08:39.838Z,10.38
2023-03-29T08:11:12.056Z,10.34
2023-03-29T08:13:59.976Z,10.47
2023-03-29T08:16:27.573Z,10.72
2023-03-29T08:19:04.430Z,10.85
2023-03-29T08:21:52.172Z,11.52
2023-03-29T08:24:22.297Z,11.61
2023-03-29T08:26:55.525Z,11.87
2023-03-29T08:29:25.245Z,11.29
2023-03-29T08:31:52.832Z,11.93
2023-03-29T08:34:20.277Z,12.15
2023-03-29T08:37:04.173Z,12.27
2023-03-29T08:39:45.981Z,12.43
2023-03-29T08:43:06.384Z,12.59
2023-03-29T08:46:09.005Z,12.41
2023-03-29T08:48:46.009Z,12.13
2023-03-29T08:51:24.614Z,12.35
2023-03-29T08:54:11.478Z,12.68
2023-03-29T08:57:17.389Z,12.84
2023-03-29T08:59:52.824Z,12.58
2023-03-29T09:02:27.909Z,12.39
2023-03-29T09:05:21.037Z,12.67
2023-03-29T09:07:58.073Z,12.57
2023-03-29T09:10:34.271Z,12.70
2023-03-29T09:13:51.481Z,12.96
2023-03-29T09:16:34.852Z,13.44
2023-03-29T09:19:06.341Z,13.48
2023-03-29T09:21:42.277Z,13.32
2023-03-29T09:24:17.246Z,13.15
2023-03-29T09:27:10.660Z,13.17
2023-03-29T09:30:08.228Z,13.60
2023-03-29T09:32:56.846Z,13.52
2023-03-29T09:35:39.264Z,13.59
2023-03-29T09:38:12.522Z,13.54
2023-03-29T09:40:51.699Z,13.89
2023-03-29T09:43:52.731Z,13.49
2023-03-29T09:46:41.964Z,13.25
2023-03-29T09:49:17.509Z,13.73
2023-03-29T09:51:48.159Z,14.17
2023-03-29T09:54:17.062Z,14.18
2023-03-29T09:57:03.489Z,14.36
2023-03-29T09:59:31.371Z,14.55
2023-03-29T10:02:10.310Z,14.10
2023-03-29T10:04:38.627Z,14.09
2023-03-29T10:07:07.793Z,14.13
2023-03-29T10:09:35.856Z,13.97
2023-03-29T10:12:16.892Z,14.10
2023-03-29T10:14:54.234Z,13.98
2023-03-29T10:17:24.966Z,14.30
2023-03-29T10:19:57.172Z,14.34
2023-03-29T10:22:35.043Z,14.64
2023-03-29T10:25:02.644Z,14.73
2023-03-29T10:27:34.712Z,14.83
2023-03-29T10:30:12.889Z,14.86
2023-03-29T10:32:41.431Z,14.69
2023-03-29T10:35:33.905Z,15.04
2023-03-29T10:38:07.595Z,14.97
2023-03-29T10:40:41.481Z,14.89
2023-03-29T10:43:14.582Z,15.02
2023-03-29T10:45:42.533Z,15.34
2023-03-29T10:48:15.520Z,15.36
2023-03-29T10:50:48.747Z,15.66
2023-03-29T10:53:20.354Z,15.83
2023-03-29T10:56:00.995Z,15.69
2023-03-29T10:58:51.859Z,15.46
2023-03-29T11:01:57.961Z,15.92
2023-03-29T11:05:01.976Z,15.96
2023-03-29T11:07:38.908Z,16.00
2023-03-29T11:10:26.092Z,15.40
2023-03-29T11:12:59.565Z,15.82
2023-03-29T11:15:51.953Z,16.00
2023-03-29T11:18:25.394Z,15.56
2023-03-29T11:21:17.868Z,15.70
2023-03-29T11:24:01.490Z,15.57
2023-03-29T11:26:50.028Z,15.44
2023-03-29T11:29:40.663Z,15.24
2023-03-29T11:32:42.410Z,14.98
2023-03-29T11:35:31.842Z,14.94
2023-03-29T11:38:18.097Z,15.01
2023-03-29T11:41:09.324Z,15.23
2023-03-29T11:43:55.266Z,15.57
2023-03-29T11:46:32.273Z,15.58
2023-03-29T11:49:21.568Z,15.66
2023-03-29T11:52:14.288Z,15.20
2023-03-29T11:55:14.996Z,15.46
2023-03-29T11:57:45.603Z,15.42
2023-03-29T12:00:15.780Z,15.42
2023-03-29T12:02:59.659Z,15.86
2023-03-29T12:05:32.913Z,15.93
2023-03-29T12:08:06.774Z,16.31
2023-03-29T12:10:37.051Z,16.30
2023-03-29T12:13:24.025Z,15.95
2023-03-29T12:16:02.412Z,16.45
2023-03-29T12:18:57.966Z,16.66
2023-03-29T12:21:28.880Z,16.76
2023-03-29T12:23:58.240Z,16.70
2023-03-29T12:27:03.031Z,16.76
2023-03-29T12:29:48.798Z,17.22
2023-03-29T12:32:31.411Z,17.04
2023-03-29T12:35:44.299Z,16.45
2023-03-29T12:38:32.013Z,16.32
2023-03-29T12:41:24.484Z,16.74
2023-03-29T12:44:15.381Z,16.82
2023-03-29T12:47:03.321Z,16.77
2023-03-29T12:49:37.703Z,16.76
2023-03-29T12:52:26.995Z,16.58
2023-03-29T12:54:57.580Z,16.74
2023-03-29T12:58:00.518Z,16.46
2023-03-29T13:00:42.794Z,16.36
2023-03-29T13:03:34.791Z,16.49
2023-03-29T13:06:05.576Z,16.74
2023-03-29T13:08:37.114Z,16.80
2023-03-29T13:11:06.937Z,16.78
2023-03-29T13:13:40.410Z,17.35
2023-03-29T13:16:15.711Z,17.08
2023-03-29T13:19:19.558Z,16.71
2023-03-29T13:22:10.051Z,17.00
2023-03-29T13:25:25.360Z,16.85
2023-03-29T13:28:11.450Z,16.77
2023-03-29T13:30:57.637Z,17.05
2023-03-29T13:33:31.607Z,16.98
2023-03-29T13:36:21.248Z,17.26
2023-03-29T13:38:52.435Z,17.16
2023-03-29T13:41:32.586Z,17.31
2023-03-29T13:44:00.434Z,17.57
2023-03-29T13:46:42.518Z,17.53
2023-03-29T13:49:28.522Z,17.20
2023-03-29T13:52:16.763Z,17.20
2023-03-29T13:54:57.579Z,17.41
2023-03-29T13:57:37.648Z,17.07
2023-03-29T14:00:23.579Z,16.99
2023-03-29T14:02:55.903Z,17.34
2023-03-29T14:05:32.990Z,17.38
2023-03-29T14:08:32.010Z,17.13
2023-03-29T14:11:03.230Z,17.18
2023-03-29T14:13:31.208Z,17.10
2023-03-29T14:16:06.943Z,17.14
2023-03-29T14:18:37.202Z,17.21
2023-03-29T14:21:04.998Z,17.29
2023-03-29T14:23:36.552Z,17.36
2023-03-29T14:26:08.358Z,17.65
2023-03-29T14:28:49.201Z,17.32
2023-03-29T14:31:33.323Z,16.87
2023-03-29T14:34:03.182Z,17.12
2023-03-29T14:36:33.378Z,17.46
2023-03-29T14:39:07.981Z,17.54
2023-03-29T14:41:37.510Z,17.28
2023-03-29T14:44:07.830Z,17.27
2023-03-29T14:46:36.828Z,17.09
2023-03-29T14:49:06.309Z,17.15
2023-03-29T14:51:34.382Z,17.33
2023-03-29T14:54:03.989Z,17.30
2023-03-29T14:56:33.207Z,17.04
2023-03-29T14:59:04.975Z,16.87
2023-03-29T15:01:33.406Z,17.14
2023-03-29T15:04:10.381Z,17.31
2023-03-29T15:06:44.129Z,17.21
2023-03-29T15:09:19.249Z,17.56
2023-03-29T15:11:55.006Z,17.51
2023-03-29T15:14:25.448Z,17.40
2023-03-29T15:17:03.930Z,17.33
2023-03-29T15:19:32.364Z,16.97
2023-03-29T15:22:10.104Z,17.03
2023-03-29T15:24:45.009Z,16.97
2023-03-29T15:27:18.196Z,17.25
2023-03-29T15:29:47.536Z,16.98
2023-03-29T15:32:23.467Z,17.03
2023-03-29T15:35:03.055Z,17.14
2023-03-29T15:37:31.444Z,16.97
2023-03-29T15:39:59.103Z,16.74
2023-03-29T15:42:26.746Z,16.67
2023-03-29T15:44:56.457Z,16.87
2023-03-29T15:47:24.277Z,17.10
2023-03-29T15:49:51.880Z,17.07
2023-03-29T15:52:19.496Z,17.22
2023-03-29T15:54:46.965Z,17.34
2023-03-29T15:57:16.311Z,17.11
2023-03-29T15:59:44.545Z,17.16
2023-03-29T16:02:16.612Z,17.13
2023-03-29T16:04:44.182Z,16.84
2023-03-29T16:07:17.344Z,16.86
2023-03-29T16:09:46.223Z,16.96
2023-03-29T16:12:16.217Z,16.97
2023-03-29T16:14:43.837Z,16.94
2023-03-29T16:17:11.581Z,17.13
2023-03-29T16:19:39.068Z,16.94
2023-03-29T16:22:07.618Z,16.76
2023-03-29T16:24:36.374Z,16.60
2023-03-29T16:27:04.462Z,16.51
2023-03-29T16:29:32.072Z,16.47
2023-03-29T16:31:59.702Z,16.49
2023-03-29T16:34:27.333Z,16.68
2023-03-29T16:36:55.097Z,16.68
2023-03-29T16:39:22.590Z,16.26
2023-03-29T16:41:50.300Z,16.29
2023-03-29T16:44:22.946Z,16.26
2023-03-29T16:46:54.401Z,16.34
2023-03-29T16:49:22.472Z,16.20
2023-03-29T16:51:50.561Z,16.05
2023-03-29T16:54:18.996Z,15.97
2023-03-29T16:56:47.037Z,16.00
2023-03-29T16:59:15.333Z,16.04
2023-03-29T17:01:42.933Z,15.95
2023-03-29T17:04:10.808Z,15.90
2023-03-29T17:06:38.370Z,15.74
2023-03-29T17:09:06.238Z,15.77
2023-03-29T17:11:34.674Z,15.67
2023-03-29T17:14:02.325Z,15.61
2023-03-29T17:16:29.869Z,15.78
2023-03-29T17:19:00.611Z,15.73
2023-03-29T17:21:29.654Z,15.59
2023-03-29T17:23:57.294Z,15.59
2023-03-29T17:26:24.834Z,15.43
2023-03-29T17:28:52.264Z,15.58
2023-03-29T17:31:19.925Z,15.30
2023-03-29T17:33:47.659Z,15.16
2023-03-29T17:36:15.793Z,15.11
2023-03-29T17:38:43.334Z,15.09
2023-03-29T17:41:11.095Z,15.06
2023-03-29T17:43:38.604Z,14.96
2023-03-29T17:46:06.585Z,14.94
2023-03-29T17:48:34.466Z,14.75
2023-03-29T17:51:02.258Z,14.67
2023-03-29T17:53:29.918Z,14.57
2023-03-29T17:55:57.488Z,14.41
2023-03-29T17:58:24.960Z,14.23
2023-03-29T18:00:52.541Z,14.06
2023-03-29T18:03:20.078Z,13.81
2023-03-29T18:05:48.186Z,13.76
2023-03-29T18:08:16.885Z,13.76
2023-03-29T18:10:44.424Z,13.77
2023-03-29T18:13:14.019Z,13.67
2023-03-29T18:15:42.296Z,13.53
2023-03-29T18:18:09.795Z,13.29
2023-03-29T18:20:37.468Z,13.11
2023-03-29T18:23:04.930Z,12.85
2023-03-29T18:25:32.463Z,12.76
2023-03-29T18:27:59.941Z,12.70
2023-03-29T18:30:27.574Z,12.47
2023-03-29T18:32:55.148Z,12.43
2023-03-29T18:35:22.782Z,12.44
2023-03-29T18:37:51.593Z,12.37
2023-03-29T18:40:24.868Z,12.10
2023-03-29T18:42:52.584Z,11.99
2023-03-29T18:45:22.254Z,11.72
2023-03-29T18:47:50.653Z,11.83
2023-03-29T18:50:18.468Z,11.77
2023-03-29T18:52:46.058Z,11.79
2023-03-29T18:55:13.534Z,11.64
2023-03-29T18:57:41.757Z,11.59
2023-03-29T19:00:11.964Z,11.47
2023-03-29T19:02:40.762Z,11.44
2023-03-29T19:05:09.376Z,11.66
2023-03-29T19:07:37.535Z,11.28
2023-03-29T19:10:06.704Z,11.22
2023-03-29T19:12:34.280Z,11.27
2023-03-29T19:15:02.832Z,11.15
2023-03-29T19:17:30.938Z,11.10
2023-03-29T19:19:59.026Z,11.14
2023-03-29T19:22:26.657Z,11.08
2023-03-29T19:24:54.403Z,11.08
2023-03-29T19:27:22.178Z,11.03
2023-03-29T19:29:50.097Z,10.87
2023-03-29T19:32:17.919Z,10.90
2023-03-29T19:34:45.422Z,10.71
2023-03-29T19:37:12.892Z,10.71
2023-03-29T19:39:41.514Z,10.69
2023-03-29T19:42:09.255Z,10.70
2023-03-29T19:44:38.372Z,10.63
2023-03-29T19:47:06.127Z,10.71
2023-03-29T19:49:37.041Z,10.59
2023-03-29T19:52:06.315Z,10.52
2023-03-29T19:54:34.061Z,10.67
2023-03-29T19:57:01.910Z,10.66
2023-03-29T19:59:31.152Z,10.61
2023-03-29T20:01:59.343Z,10.55
2023-03-29T20:04:28.830Z,10.65
2023-03-29T20:06:57.750Z,10.73
2023-03-29T20:09:25.275Z,10.76
2023-03-29T20:11:52.913Z,10.70
2023-03-29T20:14:20.728Z,10.82
2023-03-29T20:16:52.461Z,10.97
2023-03-29T20:19:26.934Z,10.86
2023-03-29T20:21:58.942Z,11.06
2023-03-29T20:24:26.625Z,11.02
2023-03-29T20:26:54.126Z,10.90
2023-03-29T20:29:21.752Z,10.72
2023-03-29T20:31:49.303Z,10.71
2023-03-29T20:34:18.190Z,10.60
2023-03-29T20:36:47.035Z,10.71
2023-03-29T20:39:17.839Z,10.71
2023-03-29T20:41:47.935Z,10.79
2023-03-29T20:44:17.061Z,10.76
2023-03-29T20:47:08.357Z,10.64
2023-03-29T20:49:39.530Z,10.63
2023-03-29T20:52:15.530Z,10.58
2023-03-29T20:54:44.476Z,10.44
2023-03-29T20:57:17.170Z,10.40
2023-03-29T20:59:45.787Z,10.50
2023-03-29T21:02:19.187Z,10.37
2023-03-29T21:04:53.775Z,10.38
2023-03-29T21:07:21.952Z,10.36
2023-03-29T21:09:50.349Z,10.31
2023-03-29T21:12:17.922Z,10.25
2023-03-29T21:14:47.367Z,10.18
2023-03-29T21:17:15.350Z,10.15
2023-03-29T21:19:42.849Z,10.15
2023-03-29T21:22:13.819Z,10.21
2023-03-29T21:24:41.442Z,10.12
2023-03-29T21:27:09.130Z,10.33
2023-03-29T21:29:36.649Z,10.25
2023-03-29T21:32:04.674Z,10.28
2023-03-29T21:34:32.190Z,10.22
2023-03-29T21:36:59.717Z,10.13
2023-03-29T21:39:27.646Z,10.11
2023-03-29T21:41:55.200Z,9.91
2023-03-29T21:44:22.697Z,10.00
2023-03-29T21:46:50.197Z,9.88
2023-03-29T21:49:17.949Z,10.01
2023-03-29T21:51:46.515Z,9.90
2023-03-29T21:54:14.055Z,9.82
2023-03-29T21:56:41.625Z,9.80
2023-03-29T21:59:09.023Z,9.84
2023-03-29T22:01:36.574Z,9.64
2023-03-29T22:04:04.328Z,9.77
2023-03-29T22:06:32.003Z,9.71
2023-03-29T22:09:00.753Z,9.82
2023-03-29T22:11:31.099Z,9.68
2023-03-29T22:13:58.639Z,9.64
2023-03-29T22:16:28.115Z,9.65
2023-03-29T22:18:55.818Z,9.65
2023-03-29T22:21:26.527Z,9.57
2023-03-29T22:23:59.368Z,9.62
2023-03-29T22:26:31.949Z,9.68
2023-03-29T22:29:00.828Z,9.78
2023-03-29T22:31:29.795Z,9.73
2023-03-29T22:33:58.656Z,9.69
2023-03-29T22:36:28.693Z,9.54
2023-03-29T22:38:56.312Z,9.73
2023-03-29T22:41:26.127Z,9.74
2023-03-29T22:43:56.136Z,9.82
2023-03-29T22:46:24.794Z,9.87
2023-03-29T22:48:53.151Z,9.77
2023-03-29T22:51:21.296Z,9.72
2023-03-29T22:53:48.721Z,9.73
2023-03-29T22:56:16.902Z,9.60
2023-03-29T22:58:44.787Z,9.65
2023-03-29T23:01:12.778Z,9.74
2023-03-29T23:03:40.528Z,9.72
2023-03-29T23:06:08.046Z,9.64
2023-03-29T23:08:36.313Z,9.72
2023-03-29T23:11:04.610Z,9.68
2023-03-29T23:13:33.752Z,9.70
2023-03-29T23:16:03.592Z,9.66
2023-03-29T23:18:34.950Z,9.68
2023-03-29T23:21:05.609Z,9.69
2023-03-29T23:23:33.835Z,9.70
2023-03-29T23:26:02.055Z,9.64
2023-03-29T23:28:34.584Z,9.56
2023-03-29T23:31:05.814Z,9.60
2023-03-29T23:33:35.678Z,9.60
2023-03-29T23:36:05.838Z,9.58
2023-03-29T23:38:35.142Z,9.63
2023-03-29T23:41:06.307Z,9.66
2023-03-29T23:43:37.320Z,9.66
2023-03-29T23:46:11.346Z,9.50
2023-03-29T23:48:39.450Z,9.46
2023-03-29T23:51:08.360Z,9.60
2023-03-29T23:53:36.847Z,9.42
2023-03-29T23:56:06.007Z,9.34
2023-03-29T23:58:37.549Z,9.52
